Time;durP1;ratioP1;P1;durP2;ratioP2;P2;SDS_P1;SDS_P2;PMS_P1;PMS_P2;Temp;Humidity;BMP_temperature;BMP_pressure;BME280_temperature;BME280_humidity;BME280_pressure;Samples;Min_cycle;Max_cycle;Signal;HPM_P1;HPM_P2
2021/12/03 00:00:39;;;;;;;4.47;2.38;;;1.50;99.90;;;;;;4990063;28;20179;-79
2021/12/03 00:03:06;;;;;;;2.95;2.55;;;1.50;99.90;;;;;;4999593;28;20290;-79
2021/12/03 00:05:31;;;;;;;3.30;2.45;;;1.50;99.90;;;;;;4992939;28;20194;-80
2021/12/03 00:07:57;;;;;;;5.70;2.33;;;1.60;99.90;;;;;;4997976;28;20189;-79
2021/12/03 00:10:25;;;;;;;5.27;2.93;;;1.50;99.90;;;;;;4997709;28;20273;-82
2021/12/03 00:12:51;;;;;;;3.30;2.95;;;1.50;99.90;;;;;;4998091;28;20202;-80
2021/12/03 00:15:18;;;;;;;4.63;3.05;;;1.50;99.90;;;;;;5002048;28;20257;-78
2021/12/03 00:17:44;;;;;;;6.07;3.10;;;1.50;99.90;;;;;;5000885;28;20194;-80
2021/12/03 00:20:13;;;;;;;3.77;2.60;;;1.60;99.90;;;;;;4999296;28;20174;-79
2021/12/03 00:22:44;;;;;;;5.68;2.97;;;1.50;99.90;;;;;;5013122;28;20221;-79
2021/12/03 00:25:09;;;;;;;4.45;3.20;;;1.60;99.90;;;;;;5000075;28;20175;-77
2021/12/03 00:27:35;;;;;;;7.13;3.20;;;1.50;99.90;;;;;;5000702;28;20174;-80
2021/12/03 00:30:01;;;;;;;8.73;3.73;;;1.50;99.90;;;;;;5001023;28;20178;-80
2021/12/03 00:32:26;;;;;;;6.20;2.93;;;1.40;99.90;;;;;;5002791;28;20218;-81
2021/12/03 00:34:52;;;;;;;5.17;3.37;;;1.40;99.90;;;;;;4992418;28;20183;-80
2021/12/03 00:37:17;;;;;;;2.70;2.13;;;1.40;99.90;;;;;;5003034;28;20206;-80
2021/12/03 00:39:43;;;;;;;7.30;3.63;;;1.30;99.90;;;;;;5001093;28;20175;-78
2021/12/03 00:42:14;;;;;;;8.50;3.10;;;1.40;99.90;;;;;;4997037;28;20199;-79
2021/12/03 00:44:39;;;;;;;9.50;4.15;;;1.30;99.90;;;;;;5002170;28;20965;-80
2021/12/03 00:47:05;;;;;;;5.33;3.57;;;1.30;99.90;;;;;;5002715;28;20225;-81
2021/12/03 00:49:30;;;;;;;3.40;2.20;;;1.30;99.90;;;;;;4984099;28;20273;-80
2021/12/03 00:51:56;;;;;;;5.50;3.50;;;1.30;99.90;;;;;;4989988;28;20202;-81
2021/12/03 00:54:21;;;;;;;4.20;3.07;;;1.30;99.90;;;;;;4999406;28;20191;-80
2021/12/03 00:56:47;;;;;;;3.10;2.70;;;1.30;99.90;;;;;;4983899;28;20222;-81
2021/12/03 00:59:13;;;;;;;5.00;3.00;;;1.30;99.90;;;;;;4999595;28;20190;-79
2021/12/03 01:01:39;;;;;;;7.70;3.47;;;1.30;99.90;;;;;;4996238;28;20206;-80
2021/12/03 01:04:05;;;;;;;6.57;3.23;;;1.30;99.90;;;;;;4996143;28;20186;-79
2021/12/03 01:06:31;;;;;;;5.55;2.78;;;1.30;99.90;;;;;;4992302;28;20183;-79
2021/12/03 01:08:56;;;;;;;2.43;2.23;;;1.30;99.90;;;;;;4998364;28;20899;-77
2021/12/03 01:11:22;;;;;;;5.03;2.90;;;1.20;99.90;;;;;;4989114;28;20203;-80
2021/12/03 01:13:48;;;;;;;3.63;2.67;;;1.20;99.90;;;;;;4984080;28;20182;-79
2021/12/03 01:16:15;;;;;;;3.30;2.43;;;1.20;99.90;;;;;;4999494;28;20625;-80
2021/12/03 01:18:41;;;;;;;6.60;2.95;;;1.30;99.90;;;;;;4977218;28;20187;-79
2021/12/03 01:21:08;;;;;;;6.88;3.70;;;1.30;99.90;;;;;;4998397;28;20205;-80
2021/12/03 01:23:34;;;;;;;6.78;4.30;;;1.40;99.90;;;;;;5010314;28;20275;-78
2021/12/03 01:26:00;;;;;;;8.63;3.53;;;1.30;99.90;;;;;;4994106;28;20191;-80
2021/12/03 01:28:27;;;;;;;9.10;3.50;;;1.30;99.90;;;;;;4996702;28;20682;-80
2021/12/03 01:30:54;;;;;;;7.88;4.38;;;1.30;99.90;;;;;;4996161;28;20655;-78
2021/12/03 01:33:20;;;;;;;6.80;4.10;;;1.20;99.90;;;;;;4978074;28;20934;-79
2021/12/03 01:35:45;;;;;;;5.70;4.23;;;1.20;99.90;;;;;;4980723;28;20222;-79
2021/12/03 01:38:11;;;;;;;7.10;4.67;;;1.20;99.90;;;;;;4983621;28;20186;-80
2021/12/03 01:40:39;;;;;;;8.60;4.57;;;1.10;99.90;;;;;;4997074;28;20281;-80
2021/12/03 01:43:06;;;;;;;9.80;4.50;;;1.00;99.90;;;;;;4999283;28;20233;-77
2021/12/03 01:45:35;;;;;;;9.20;4.53;;;1.00;99.90;;;;;;5015379;28;20187;-78
2021/12/03 01:48:02;;;;;;;7.38;4.32;;;1.00;99.90;;;;;;5011449;28;20183;-78
2021/12/03 01:50:35;;;;;;;6.10;4.88;;;1.00;99.90;;;;;;4994272;28;20666;-80
2021/12/03 01:53:02;;;;;;;6.82;4.15;;;0.90;99.90;;;;;;4998283;28;20195;-78
2021/12/03 01:55:28;;;;;;;7.13;5.00;;;0.90;99.90;;;;;;4985200;28;20269;-80
2021/12/03 01:57:53;;;;;;;6.20;3.33;;;0.90;99.90;;;;;;4982240;28;20717;-80
2021/12/03 02:00:26;;;;;;;6.20;3.80;;;0.80;99.90;;;;;;4998551;28;20933;-77
2021/12/03 02:02:52;;;;;;;6.07;4.55;;;0.90;99.90;;;;;;5013267;28;20261;-78
2021/12/03 02:05:18;;;;;;;8.38;4.38;;;0.90;99.90;;;;;;4980982;28;20562;-80
2021/12/03 02:07:44;;;;;;;6.97;4.40;;;0.90;99.90;;;;;;4984424;28;20274;-80
2021/12/03 02:10:10;;;;;;;11.03;4.70;;;0.80;99.90;;;;;;5001010;28;20269;-82
2021/12/03 02:12:37;;;;;;;7.83;4.40;;;0.80;99.90;;;;;;4997519;28;20523;-80
2021/12/03 02:15:04;;;;;;;7.97;5.05;;;0.80;99.90;;;;;;4999799;28;20171;-80
2021/12/03 02:17:30;;;;;;;5.15;4.20;;;0.80;99.90;;;;;;4989305;28;20248;-79
2021/12/03 02:19:55;;;;;;;6.53;4.27;;;0.80;99.90;;;;;;4997844;28;20183;-78
2021/12/03 02:22:21;;;;;;;8.10;4.27;;;0.80;99.90;;;;;;5000643;28;20516;-80
2021/12/03 02:24:48;;;;;;;12.33;5.50;;;0.70;99.90;;;;;;5004065;28;20178;-79
2021/12/03 02:27:14;;;;;;;8.48;4.70;;;0.80;99.90;;;;;;5001864;28;20521;-79
2021/12/03 02:29:40;;;;;;;8.13;5.57;;;0.80;99.90;;;;;;5002767;28;21120;-80
2021/12/03 02:32:06;;;;;;;7.40;5.27;;;0.90;99.90;;;;;;4981649;28;20219;-80
2021/12/03 02:34:32;;;;;;;10.15;5.35;;;0.90;99.90;;;;;;5002219;28;21014;-79
2021/12/03 02:36:57;;;;;;;6.13;3.93;;;1.00;99.90;;;;;;4984964;28;20192;-79
2021/12/03 02:39:23;;;;;;;6.80;5.00;;;1.00;99.90;;;;;;5005714;28;20437;-81
2021/12/03 02:41:48;;;;;;;7.93;4.43;;;1.10;99.90;;;;;;5005041;28;20202;-78
2021/12/03 02:44:14;;;;;;;10.27;4.40;;;1.00;99.90;;;;;;4997451;28;20757;-80
2021/12/03 02:46:40;;;;;;;8.47;6.20;;;1.10;99.90;;;;;;5004406;28;20186;-81
2021/12/03 02:49:06;;;;;;;7.83;5.53;;;1.00;99.90;;;;;;5000468;28;20248;-80
2021/12/03 02:51:32;;;;;;;8.02;5.10;;;1.10;99.90;;;;;;5001687;28;20753;-80
2021/12/03 02:53:58;;;;;;;7.47;4.57;;;1.00;99.90;;;;;;5004318;28;20191;-78
2021/12/03 02:56:24;;;;;;;8.83;5.30;;;1.00;99.90;;;;;;5006662;28;20215;-81
2021/12/03 02:58:49;;;;;;;10.47;4.37;;;1.00;99.90;;;;;;4988310;28;20431;-80
2021/12/03 03:01:15;;;;;;;7.67;4.80;;;1.00;99.90;;;;;;4984349;28;20198;-81
2021/12/03 03:03:41;;;;;;;9.40;4.80;;;1.00;99.90;;;;;;4983760;28;20179;-80
2021/12/03 03:06:08;;;;;;;7.85;5.03;;;1.10;99.90;;;;;;5002723;28;20186;-80
2021/12/03 03:08:35;;;;;;;9.55;6.15;;;1.00;99.90;;;;;;4988193;28;20733;-79
2021/12/03 03:11:05;;;;;;;8.82;5.47;;;1.00;99.90;;;;;;5003861;28;20187;-81
2021/12/03 03:13:31;;;;;;;10.25;6.53;;;1.00;99.90;;;;;;4992187;28;20179;-80
2021/12/03 03:15:57;;;;;;;8.90;6.60;;;1.10;99.90;;;;;;5004739;28;20223;-81
2021/12/03 03:18:25;;;;;;;17.48;5.93;;;1.10;99.90;;;;;;5001821;28;20186;-81
2021/12/03 03:20:52;;;;;;;10.15;6.85;;;1.10;99.90;;;;;;5018641;28;20182;-81
2021/12/03 03:23:19;;;;;;;13.10;6.18;;;1.10;99.90;;;;;;5001336;28;20186;-78
2021/12/03 03:25:48;;;;;;;12.93;6.38;;;1.10;99.90;;;;;;5004293;28;20183;-81
2021/12/03 03:28:14;;;;;;;13.07;6.85;;;1.20;99.90;;;;;;4990366;28;20182;-82
2021/12/03 03:30:42;;;;;;;15.20;7.63;;;1.20;99.90;;;;;;5001494;28;20183;-80
2021/12/03 03:33:09;;;;;;;11.45;6.10;;;1.20;99.90;;;;;;5018346;28;20734;-81
2021/12/03 03:35:35;;;;;;;13.65;5.78;;;1.10;99.90;;;;;;4999568;28;20182;-80
2021/12/03 03:38:01;;;;;;;13.93;6.57;;;1.00;99.90;;;;;;5001125;28;21099;-80
2021/12/03 03:40:28;;;;;;;11.10;6.72;;;0.90;99.90;;;;;;5002236;28;20182;-81
2021/12/03 03:42:56;;;;;;;16.15;8.27;;;0.70;99.90;;;;;;4994496;28;20236;-80
2021/12/03 03:45:23;;;;;;;11.98;7.55;;;0.70;99.90;;;;;;5003090;28;20593;-79
2021/12/03 03:47:49;;;;;;;9.93;4.97;;;0.70;99.90;;;;;;5002947;28;20218;-80
2021/12/03 03:50:17;;;;;;;16.93;6.40;;;0.60;99.90;;;;;;4996890;28;20554;-79
2021/12/03 03:52:44;;;;;;;11.90;6.47;;;0.60;99.90;;;;;;4985418;28;20475;-78
2021/12/03 03:55:11;;;;;;;15.30;7.13;;;0.50;99.90;;;;;;5001929;28;20163;-79
2021/12/03 03:57:37;;;;;;;9.95;6.43;;;0.50;99.90;;;;;;5004105;28;20217;-78
2021/12/03 04:00:05;;;;;;;9.60;6.00;;;0.40;99.90;;;;;;5004915;28;20313;-80
2021/12/03 04:02:31;;;;;;;15.00;6.50;;;0.50;99.90;;;;;;5002161;28;20301;-80
2021/12/03 04:04:57;;;;;;;12.47;7.27;;;0.50;99.90;;;;;;4982654;28;20257;-78
2021/12/03 04:07:22;;;;;;;14.47;6.70;;;0.60;99.90;;;;;;4989664;28;20191;-79
2021/12/03 04:09:48;;;;;;;10.70;6.63;;;0.60;99.90;;;;;;5000478;28;20191;-81
2021/12/03 04:12:13;;;;;;;12.63;6.63;;;0.50;99.90;;;;;;5000610;28;20207;-81
2021/12/03 04:14:39;;;;;;;9.13;5.33;;;0.60;99.90;;;;;;4987571;28;20673;-79
2021/12/03 04:17:04;;;;;;;9.30;4.50;;;0.50;99.90;;;;;;4989043;28;20216;-80
2021/12/03 04:19:30;;;;;;;17.23;7.03;;;0.50;99.90;;;;;;4997678;28;20298;-81
2021/12/03 04:21:56;;;;;;;13.20;5.73;;;0.50;99.90;;;;;;4992069;28;21224;-80
2021/12/03 04:24:22;;;;;;;13.73;6.75;;;0.60;99.90;;;;;;4984227;28;20290;-79
2021/12/03 04:26:48;;;;;;;10.88;5.95;;;0.50;99.90;;;;;;5001428;28;20266;-79
2021/12/03 04:29:13;;;;;;;10.37;5.87;;;0.50;99.90;;;;;;4983897;28;20186;-80
2021/12/03 04:31:39;;;;;;;12.60;7.83;;;0.60;99.90;;;;;;4989312;28;20579;-83
2021/12/03 04:34:04;;;;;;;10.67;6.23;;;0.60;99.90;;;;;;4987017;28;20187;-80
2021/12/03 04:36:30;;;;;;;10.70;5.60;;;0.60;99.90;;;;;;4999008;28;20566;-79
2021/12/03 04:38:56;;;;;;;11.70;6.23;;;0.60;99.90;;;;;;4985809;28;20175;-79
2021/12/03 04:41:21;;;;;;;9.40;5.47;;;0.60;99.90;;;;;;5004898;28;21003;-80
2021/12/03 04:43:47;;;;;;;17.83;8.33;;;0.50;99.90;;;;;;4998636;28;20202;-80
2021/12/03 04:46:12;;;;;;;10.20;6.20;;;0.50;99.90;;;;;;4999450;28;20194;-79
2021/12/03 04:48:38;;;;;;;12.67;6.70;;;0.40;99.90;;;;;;4996116;28;20227;-79
2021/12/03 04:51:04;;;;;;;15.13;7.77;;;0.40;99.90;;;;;;4999049;28;20183;-80
2021/12/03 04:53:30;;;;;;;11.47;6.53;;;0.40;99.90;;;;;;4985212;28;20442;-82
2021/12/03 04:55:56;;;;;;;13.43;7.30;;;0.30;99.90;;;;;;4996903;28;20477;-80
2021/12/03 04:58:21;;;;;;;16.63;8.15;;;0.20;99.90;;;;;;4992939;28;20187;-80
2021/12/03 05:00:51;;;;;;;13.50;9.90;;;0.00;99.90;;;;;;5001719;28;20230;-83
2021/12/03 05:03:16;;;;;;;14.00;7.80;;;0.00;99.90;;;;;;4991246;28;20179;-85
2021/12/03 05:05:47;;;;;;;11.67;7.93;;;-0.10;99.90;;;;;;5000929;28;20549;-79
2021/12/03 05:08:13;;;;;;;13.15;7.88;;;-0.20;99.90;;;;;;5001135;28;20839;-84
2021/12/03 05:10:41;;;;;;;16.03;7.67;;;-0.40;99.90;;;;;;4992868;28;20183;-80
2021/12/03 05:13:10;;;;;;;15.73;7.53;;;-0.30;99.90;;;;;;4987307;28;20199;-82
2021/12/03 05:15:37;;;;;;;13.18;6.90;;;-0.40;99.90;;;;;;5021458;28;20179;-78
2021/12/03 05:18:03;;;;;;;11.32;6.50;;;-0.40;99.90;;;;;;4984099;28;20686;-79
2021/12/03 05:20:29;;;;;;;13.15;7.32;;;-0.40;99.90;;;;;;5004590;28;20593;-82
2021/12/03 05:22:55;;;;;;;13.07;7.27;;;-0.50;99.90;;;;;;5001561;28;20210;-82
2021/12/03 05:25:21;;;;;;;11.57;6.97;;;-0.50;99.90;;;;;;4985076;28;20258;-76
2021/12/03 05:27:49;;;;;;;12.02;6.90;;;-0.60;99.90;;;;;;5002492;28;20183;-79
2021/12/03 05:30:14;;;;;;;14.07;7.30;;;-0.60;99.90;;;;;;4981874;28;20178;-78
2021/12/03 05:32:42;;;;;;;14.53;7.17;;;-0.70;99.90;;;;;;4998798;28;20213;-79
2021/12/03 05:35:09;;;;;;;14.30;7.97;;;-0.70;99.90;;;;;;5001717;28;20229;-77
2021/12/03 05:37:35;;;;;;;14.55;8.52;;;-0.70;99.90;;;;;;5001683;28;20187;-77
2021/12/03 05:40:03;;;;;;;14.67;7.73;;;-0.70;99.90;;;;;;5002634;28;20197;-79
2021/12/03 05:42:28;;;;;;;15.95;8.18;;;-0.70;99.90;;;;;;4999314;28;20457;-77
2021/12/03 05:44:54;;;;;;;11.47;7.30;;;-0.70;99.90;;;;;;5003148;28;20217;-79
2021/12/03 05:47:20;;;;;;;21.02;7.03;;;-0.70;99.90;;;;;;5002362;28;20209;-79
2021/12/03 05:49:45;;;;;;;13.03;7.30;;;-0.80;99.90;;;;;;4999301;28;20190;-76
2021/12/03 05:52:11;;;;;;;15.57;7.23;;;-0.80;99.90;;;;;;5001944;28;20875;-77
2021/12/03 05:54:37;;;;;;;13.43;7.30;;;-0.90;99.90;;;;;;5002433;28;20182;-79
2021/12/03 05:57:02;;;;;;;13.13;6.93;;;-0.90;99.90;;;;;;4998030;28;20205;-78
2021/12/03 05:59:28;;;;;;;11.70;5.63;;;-1.00;99.90;;;;;;4983342;28;20437;-78
2021/12/03 06:01:53;;;;;;;19.20;6.50;;;-1.00;99.90;;;;;;4980901;28;21582;-79
2021/12/03 06:04:21;;;;;;;12.83;7.60;;;-1.00;99.90;;;;;;4981212;28;20191;-79
2021/12/03 06:06:46;;;;;;;13.15;6.55;;;-1.00;99.90;;;;;;5001747;28;20189;-82
2021/12/03 06:09:12;;;;;;;11.37;6.30;;;-1.10;99.90;;;;;;4997447;28;20191;-79
2021/12/03 06:11:38;;;;;;;11.03;6.77;;;-1.10;99.90;;;;;;5000645;28;20463;-79
2021/12/03 06:14:03;;;;;;;14.63;7.50;;;-1.00;99.90;;;;;;4998302;28;20201;-80
2021/12/03 06:16:29;;;;;;;8.73;5.37;;;-1.00;99.90;;;;;;4997992;28;20473;-79
2021/12/03 06:18:55;;;;;;;15.90;8.00;;;-0.90;99.90;;;;;;4995865;28;20266;-79
2021/12/03 06:21:20;;;;;;;5.97;4.57;;;-0.90;99.90;;;;;;4997810;28;20582;-79
2021/12/03 06:23:47;;;;;;;17.27;6.57;;;-0.90;99.90;;;;;;4999331;28;20179;-78
2021/12/03 06:26:12;;;;;;;10.65;5.75;;;-0.90;99.90;;;;;;4983788;28;20277;-78
2021/12/03 06:28:39;;;;;;;16.67;6.20;;;-0.90;99.90;;;;;;4994230;28;20290;-77
2021/12/03 06:31:06;;;;;;;14.93;7.05;;;-1.00;99.90;;;;;;4995830;28;20654;-79
2021/12/03 06:33:31;;;;;;;11.00;6.53;;;-1.00;99.90;;;;;;4983253;28;20281;-79
2021/12/03 06:35:57;;;;;;;13.30;7.30;;;-1.00;99.90;;;;;;5001033;28;20612;-79
2021/12/03 06:38:23;;;;;;;12.43;6.70;;;-1.00;99.90;;;;;;5002752;28;20178;-80
2021/12/03 06:40:50;;;;;;;13.83;7.80;;;-1.10;99.90;;;;;;5002629;28;20429;-79
2021/12/03 06:43:15;;;;;;;14.23;7.20;;;-1.10;99.90;;;;;;4997500;28;20206;-80
2021/12/03 06:45:41;;;;;;;11.80;5.40;;;-1.20;99.90;;;;;;4992069;28;20694;-80
2021/12/03 06:48:08;;;;;;;12.27;6.13;;;-1.10;99.90;;;;;;4986182;28;20213;-79
2021/12/03 06:50:34;;;;;;;15.30;8.50;;;-1.10;99.90;;;;;;4998935;28;20185;-81
2021/12/03 06:53:06;;;;;;;21.33;8.60;;;-1.20;99.90;;;;;;5001022;28;20237;-81
2021/12/03 06:55:45;;;;;;;14.60;6.10;;;-1.20;99.90;;;;;;5003755;28;20171;-81
2021/12/03 06:58:14;;;;;;;15.02;8.02;;;-1.10;99.90;;;;;;4986005;28;20202;-80
2021/12/03 07:00:39;;;;;;;15.20;7.85;;;-1.00;99.90;;;;;;5003491;28;20174;-79
2021/12/03 07:03:05;;;;;;;9.20;6.10;;;-1.00;99.90;;;;;;4996532;28;20724;-79
2021/12/03 07:05:31;;;;;;;15.23;7.43;;;-0.90;99.90;;;;;;5000951;28;20174;-80
2021/12/03 07:07:56;;;;;;;16.70;7.20;;;-0.90;99.90;;;;;;4997338;28;20209;-80
2021/12/03 07:10:22;;;;;;;15.43;6.83;;;-0.90;99.90;;;;;;5003698;28;20446;-80
2021/12/03 07:13:18;;;;;;;21.87;8.33;;;-0.90;99.90;;;;;;5008656;28;20240;-81
2021/12/03 07:15:44;;;;;;;14.38;6.65;;;-0.90;99.90;;;;;;4991780;28;20194;-80
2021/12/03 07:18:09;;;;;;;11.17;6.00;;;-0.90;99.90;;;;;;4990391;28;20182;-81
2021/12/03 07:20:35;;;;;;;15.30;5.70;;;-0.90;99.90;;;;;;5001859;28;20187;-79
2021/12/03 07:23:00;;;;;;;10.63;5.63;;;-0.80;99.90;;;;;;4987359;28;20769;-80
2021/12/03 07:25:26;;;;;;;10.97;5.37;;;-0.80;99.90;;;;;;4991184;28;20669;-82
2021/12/03 07:27:52;;;;;;;12.93;7.67;;;-0.80;99.90;;;;;;5000239;28;20272;-81
2021/12/03 07:30:20;;;;;;;26.17;9.43;;;-0.70;99.90;;;;;;4986147;28;20198;-82
2021/12/03 07:32:46;;;;;;;14.52;7.55;;;-0.70;99.90;;;;;;4998375;28;20215;-79
2021/12/03 07:35:12;;;;;;;15.80;7.53;;;-0.70;99.90;;;;;;5001497;28;20189;-79
2021/12/03 07:37:38;;;;;;;15.50;7.10;;;-0.70;99.90;;;;;;5002151;28;20219;-79
2021/12/03 07:40:05;;;;;;;13.82;6.50;;;-0.60;99.90;;;;;;4987734;28;20440;-81
2021/12/03 07:42:32;;;;;;;16.30;7.88;;;-0.50;99.90;;;;;;4997857;28;20289;-81
2021/12/03 07:44:58;;;;;;;13.52;6.85;;;-0.50;99.90;;;;;;4998716;28;20630;-80
2021/12/03 07:47:24;;;;;;;12.80;6.23;;;-0.50;99.90;;;;;;5001765;28;20182;-79
2021/12/03 07:49:51;;;;;;;14.30;6.40;;;-0.60;99.90;;;;;;4998988;28;20433;-79
2021/12/03 07:52:18;;;;;;;14.55;7.10;;;-0.50;99.90;;;;;;4985025;28;20465;-80
2021/12/03 07:54:44;;;;;;;11.02;7.07;;;-0.50;99.90;;;;;;5002615;28;20185;-79
2021/12/03 07:57:10;;;;;;;10.70;5.90;;;-0.50;99.90;;;;;;5002643;28;20210;-81
2021/12/03 07:59:35;;;;;;;11.17;5.60;;;-0.60;99.90;;;;;;4984665;28;20218;-81
2021/12/03 08:02:01;;;;;;;8.77;5.50;;;-0.60;99.90;;;;;;4998553;28;20202;-80
2021/12/03 08:04:26;;;;;;;12.77;6.93;;;-0.60;99.90;;;;;;4982667;28;20186;-81
2021/12/03 08:06:54;;;;;;;10.70;6.23;;;-0.50;99.90;;;;;;5001676;28;20186;-77
2021/12/03 08:09:21;;;;;;;19.02;7.10;;;-0.50;99.90;;;;;;4989099;28;20253;-80
2021/12/03 08:11:46;;;;;;;12.32;6.82;;;-0.30;99.90;;;;;;5018379;28;20205;-79
2021/12/03 08:14:12;;;;;;;11.83;6.53;;;-0.30;99.90;;;;;;4999873;28;20175;-80
2021/12/03 08:16:38;;;;;;;12.90;5.90;;;-0.30;99.90;;;;;;5001689;28;21114;-81
2021/12/03 08:19:04;;;;;;;10.45;5.30;;;-0.10;99.90;;;;;;4999694;28;20200;-79
2021/12/03 08:21:30;;;;;;;11.43;8.50;;;-0.10;99.90;;;;;;4996590;28;20202;-79
2021/12/03 08:23:56;;;;;;;8.83;5.60;;;-0.10;99.90;;;;;;4999925;28;20908;-81
2021/12/03 08:26:22;;;;;;;9.63;4.83;;;0.00;99.90;;;;;;5000032;28;20437;-80
2021/12/03 08:28:47;;;;;;;12.87;6.03;;;0.10;99.90;;;;;;5000597;28;20179;-82
2021/12/03 08:31:15;;;;;;;20.10;8.07;;;0.40;99.90;;;;;;4981540;28;20756;-81
2021/12/03 08:33:42;;;;;;;10.77;5.47;;;0.60;99.90;;;;;;4981625;28;20190;-79
2021/12/03 08:36:08;;;;;;;22.40;13.15;;;0.80;99.90;;;;;;4998787;28;20221;-80
2021/12/03 08:38:34;;;;;;;10.68;5.20;;;1.00;99.90;;;;;;5002601;28;20193;-81
2021/12/03 08:41:00;;;;;;;15.33;6.30;;;1.10;99.90;;;;;;4995914;28;20536;-80
2021/12/03 08:43:27;;;;;;;10.53;5.13;;;1.10;99.90;;;;;;4982791;28;20937;-77
2021/12/03 08:45:55;;;;;;;10.13;6.03;;;1.10;99.90;;;;;;4996784;28;20184;-82
2021/12/03 08:48:26;;;;;;;13.55;6.55;;;1.10;99.90;;;;;;4983785;28;20218;-79
2021/12/03 08:51:05;;;;;;;15.35;5.47;;;1.50;99.90;;;;;;4995379;28;20204;-82
2021/12/03 08:56:14;;;;;;;9.80;5.03;;;1.40;99.90;;;;;;4998713;28;20240;-80
2021/12/03 08:58:40;;;;;;;12.37;5.60;;;1.40;99.90;;;;;;4982426;28;20186;-81
2021/12/03 09:01:08;;;;;;;14.50;5.30;;;1.40;99.90;;;;;;4984102;28;20206;-80
2021/12/03 09:03:34;;;;;;;9.48;5.45;;;1.50;99.90;;;;;;4994832;28;20182;-80
2021/12/03 09:05:59;;;;;;;8.90;5.40;;;1.60;99.90;;;;;;4997564;28;20187;-80
2021/12/03 09:08:25;;;;;;;9.53;4.80;;;1.90;99.90;;;;;;5001172;28;20237;-80
2021/12/03 09:10:50;;;;;;;18.40;6.43;;;1.60;99.90;;;;;;4996605;28;20236;-80
2021/12/03 09:13:16;;;;;;;9.83;5.00;;;1.60;99.90;;;;;;4995624;28;20829;-81
2021/12/03 09:15:51;;;;;;;3.95;2.30;;;1.80;99.90;;;;;;4984319;28;20193;-81
2021/12/03 09:20:56;;;;;;;9.05;5.53;;;1.80;99.90;;;;;;4998520;28;20179;-80
2021/12/03 09:24:09;;;;;;;15.65;6.00;;;1.80;99.90;;;;;;4997790;28;20312;-80
2021/12/03 09:26:15;;;;;;;6.72;4.78;;;1.90;99.90;;;;;;4991840;28;20194;-82
2021/12/03 09:28:45;;;;;;;13.18;5.22;;;1.90;99.90;;;;;;5000428;28;20174;-78
2021/12/03 09:31:11;;;;;;;10.15;5.00;;;1.90;99.90;;;;;;4998203;28;20223;-77
2021/12/03 09:33:40;;;;;;;10.93;5.30;;;2.00;99.90;;;;;;4994069;28;20187;-79
2021/12/03 09:36:08;;;;;;;12.23;5.85;;;2.20;99.90;;;;;;4999859;28;20733;-77
2021/12/03 09:38:34;;;;;;;7.50;4.25;;;2.40;99.90;;;;;;4984893;28;20229;-82
2021/12/03 09:41:21;;;;;;;7.88;4.68;;;2.80;99.90;;;;;;4995014;28;20245;-81
2021/12/03 09:43:51;;;;;;;17.00;5.53;;;2.70;99.90;;;;;;4985983;28;20167;-81
2021/12/03 09:46:20;;;;;;;8.00;5.35;;;2.60;99.90;;;;;;4982443;28;20382;-81
2021/12/03 09:51:27;;;;;;;7.15;4.00;;;3.00;99.90;;;;;;4993797;28;20978;-80
2021/12/03 09:56:38;;;;;;;7.85;4.28;;;3.90;99.90;;;;;;4996407;28;20950;-81
2021/12/03 10:12:47;;;;;;;10.60;6.25;;;4.50;99.90;;;;;;5000249;28;20217;-80
2021/12/03 10:15:26;;;;;;;8.65;3.70;;;4.10;99.90;;;;;;5013295;28;20190;-80
2021/12/03 10:18:15;;;;;;;14.07;3.88;;;3.70;99.90;;;;;;4997181;28;20212;-81
2021/12/03 10:21:03;;;;;;;10.13;3.85;;;3.80;99.90;;;;;;5000667;28;20623;-79
2021/12/03 10:29:11;;;;;;;6.28;4.68;;;3.40;99.90;;;;;;5000227;28;20243;-78
2021/12/03 10:39:54;;;;;;;10.80;4.32;;;3.50;99.90;;;;;;5002675;28;20228;-80
2021/12/03 10:42:47;;;;;;;16.08;8.50;;;3.70;99.90;;;;;;4998254;28;20281;-80
2021/12/03 10:45:30;;;;;;;14.20;6.35;;;3.80;99.90;;;;;;4988581;28;20182;-81
2021/12/03 10:48:08;;;;;;;9.80;4.88;;;3.80;99.90;;;;;;4990545;28;20186;-79
2021/12/03 10:58:46;;;;;;;5.43;2.83;;;3.20;99.90;;;;;;4999606;28;20265;-81
2021/12/03 11:07:22;;;;;;;5.18;3.58;;;3.30;99.90;;;;;;4999752;28;20194;-79
2021/12/03 11:18:21;;;;;;;3.70;2.60;;;3.20;99.90;;;;;;4998116;28;20282;-80
2021/12/03 11:36:46;;;;;;;5.20;2.42;;;3.50;99.90;;;;;;5000963;28;20210;-79
2021/12/03 11:42:26;;;;;;;5.53;2.50;;;4.10;99.90;;;;;;5001453;28;20213;-79
2021/12/03 11:51:02;;;;;;;3.30;2.58;;;4.50;99.90;;;;;;5001376;28;20232;-79
2021/12/03 11:59:00;;;;;;;7.95;2.35;;;4.60;99.90;;;;;;5002528;28;20191;-80
2021/12/03 12:35:38;;;;;;;2.47;1.63;;;4.30;99.90;;;;;;4994832;28;20186;-79
2021/12/03 12:47:15;;;;;;;3.40;1.65;;;4.00;99.90;;;;;;5001251;28;20533;-79
2021/12/03 12:58:00;;;;;;;4.90;2.42;;;4.20;99.90;;;;;;5000995;28;20268;-79
2021/12/03 13:03:21;;;;;;;2.03;1.83;;;4.80;99.90;;;;;;4998622;28;20278;-79
2021/12/03 13:08:27;;;;;;;4.40;4.03;;;5.10;99.90;;;;;;4997092;28;20193;-80
2021/12/03 13:25:26;;;;;;;2.38;1.40;;;4.90;99.90;;;;;;4996322;28;20645;-80
2021/12/03 13:28:38;;;;;;;5.97;2.05;;;4.80;99.90;;;;;;4996510;28;20179;-78
2021/12/03 13:44:10;;;;;;;4.40;2.22;;;3.80;99.90;;;;;;4998337;28;20198;-80
2021/12/03 13:46:05;;;;;;;7.85;2.80;;;3.90;99.90;;;;;;4999865;28;20312;-78
2021/12/03 13:56:31;;;;;;;5.40;2.50;;;4.20;99.90;;;;;;4996972;28;20717;-79
2021/12/03 13:59:22;;;;;;;2.58;1.50;;;4.10;99.90;;;;;;4994713;28;20228;-80
2021/12/03 14:12:51;;;;;;;3.55;1.40;;;4.00;99.90;;;;;;4983437;28;20211;-81
2021/12/03 14:36:51;;;;;;;11.43;3.75;;;3.50;99.90;;;;;;5000978;28;20545;-80
2021/12/03 14:44:31;;;;;;;6.57;3.57;;;3.20;99.90;;;;;;4996703;28;20923;-79
2021/12/03 14:53:20;;;;;;;2.90;2.00;;;3.10;99.90;;;;;;4990011;28;20211;-80
2021/12/03 14:55:54;;;;;;;4.25;1.77;;;3.10;99.90;;;;;;4989952;28;20556;-78
2021/12/03 14:58:23;;;;;;;1.48;0.85;;;3.10;99.90;;;;;;5002811;28;20173;-80
2021/12/03 15:00:58;;;;;;;3.40;2.10;;;3.00;99.90;;;;;;5003634;28;20163;-79
2021/12/03 15:08:38;;;;;;;5.03;2.70;;;2.70;99.90;;;;;;5003551;28;20529;-80
2021/12/03 15:19:52;;;;;;;13.98;3.40;;;2.40;99.90;;;;;;4968417;28;21034;-78
2021/12/03 15:25:08;;;;;;;2.75;1.33;;;2.20;99.90;;;;;;5001648;28;20313;-80
2021/12/03 15:33:08;;;;;;;20.20;7.10;;;2.00;99.90;;;;;;4997026;28;20244;-80
2021/12/03 15:38:33;;;;;;;20.58;7.22;;;2.00;99.90;;;;;;4999792;28;20197;-81
2021/12/03 15:51:58;;;;;;;20.33;5.13;;;2.00;99.90;;;;;;5000176;28;20193;-79
2021/12/03 15:57:21;;;;;;;15.30;10.15;;;1.90;99.90;;;;;;5001512;28;20194;-82
2021/12/03 16:03:32;;;;;;;7.55;4.38;;;1.80;99.90;;;;;;5002938;28;20209;-81
2021/12/03 16:08:25;;;;;;;3.20;2.13;;;1.60;99.90;;;;;;4999556;28;20171;-80
2021/12/03 16:13:30;;;;;;;6.37;3.27;;;1.50;99.90;;;;;;5000455;28;20608;-81
2021/12/03 16:24:37;;;;;;;2.35;1.85;;;1.30;99.90;;;;;;5000440;28;20175;-80
2021/12/03 16:53:49;;;;;;;5.00;3.60;;;1.70;99.90;;;;;;4999226;28;20183;-79
2021/12/03 16:56:18;;;;;;;1.45;1.35;;;1.80;99.90;;;;;;4999097;28;20540;-81
2021/12/03 16:58:44;;;;;;;3.00;1.45;;;1.80;99.90;;;;;;4983144;28;20178;-78
2021/12/03 17:04:04;;;;;;;6.43;2.70;;;1.90;99.90;;;;;;4998862;28;20441;-81
2021/12/03 17:07:14;;;;;;;5.43;1.70;;;1.90;99.90;;;;;;4996940;28;20178;-81
2021/12/03 17:12:05;;;;;;;2.42;1.67;;;2.00;99.90;;;;;;4997562;28;20284;-82
2021/12/03 17:25:14;;;;;;;7.93;2.70;;;2.00;99.90;;;;;;4997107;28;20170;-83
2021/12/03 17:30:51;;;;;;;2.80;1.90;;;1.90;99.90;;;;;;4997680;28;20214;-81
2021/12/03 17:47:26;;;;;;;6.00;2.83;;;2.10;99.90;;;;;;4997068;28;20175;-82
2021/12/03 17:49:56;;;;;;;4.28;3.28;;;2.10;99.90;;;;;;4997333;28;20185;-81
2021/12/03 17:55:15;;;;;;;2.25;2.10;;;2.00;99.90;;;;;;4996358;28;20309;-78
2021/12/03 17:57:59;;;;;;;1.55;1.23;;;2.10;99.90;;;;;;4978215;28;20196;-81
2021/12/03 18:00:42;;;;;;;9.25;1.92;;;2.00;99.90;;;;;;4996715;28;20175;-80
2021/12/03 18:04:01;;;;;;;2.35;1.50;;;2.00;99.90;;;;;;5001690;28;20303;-79
2021/12/03 18:17:45;;;;;;;4.47;1.70;;;2.10;99.90;;;;;;5000536;28;20208;-80
2021/12/03 18:49:31;;;;;;;4.97;2.38;;;2.50;99.90;;;;;;5006230;28;20185;-78
2021/12/03 18:54:40;;;;;;;3.72;1.80;;;2.50;99.90;;;;;;5005757;28;20190;-80
2021/12/03 18:57:11;;;;;;;7.15;3.80;;;2.50;99.90;;;;;;4982775;28;20194;-82
2021/12/03 18:59:43;;;;;;;6.32;3.10;;;2.50;99.90;;;;;;4989674;28;20175;-82
2021/12/03 19:02:09;;;;;;;8.55;3.60;;;2.40;99.90;;;;;;4987616;28;20727;-80
2021/12/03 19:04:58;;;;;;;3.73;2.00;;;5.60;99.90;;;;;;5005125;28;20205;-80
2021/12/03 19:07:35;;;;;;;4.80;2.10;;;2.50;99.90;;;;;;5010632;28;20429;-79
2021/12/03 19:10:06;;;;;;;4.55;2.83;;;2.50;99.90;;;;;;5006168;28;20159;-80
2021/12/03 19:12:35;;;;;;;7.72;5.20;;;2.50;99.90;;;;;;4993574;28;20225;-79
2021/12/03 19:15:01;;;;;;;4.25;3.03;;;2.50;99.90;;;;;;5001963;28;20732;-80
2021/12/03 19:17:35;;;;;;;3.83;2.92;;;2.50;99.90;;;;;;5012739;28;20195;-81
2021/12/03 19:20:03;;;;;;;5.70;4.00;;;2.40;99.90;;;;;;4997704;28;20238;-81
2021/12/03 19:22:29;;;;;;;5.50;2.97;;;2.40;99.90;;;;;;4992633;28;20202;-79
2021/12/03 19:24:58;;;;;;;6.03;2.90;;;2.40;99.90;;;;;;4992651;28;20182;-78